UDYZURSS

Guest
Details From UDYZ - Zvartnots
To URSS - Sochi
Flight Number -
Tags Generated
Created
Modified
Stats Distance 280 nm / 518 km
Max Altitude 0 ft / 0 m
Waypoints 3
Social Downloads 3
Likes 0
Share VATSIM

Download

Looking for another format? Having issues loading an existing format? Contact us
Advertisement - Login to hide

Notes

Generated

Route

UDYZ LINOK URSS

ID Type Via Altitude Latitude Longitude Leg Dist Tot Dist Heading (true) Name
O UDYZ APT - 0 ft / 0 m 40.14715˚ 44.37329˚ - 0 nm - -
LINOK FIX - 0 ft / 0 m 43.39333˚ 40.00000˚ 276 nm 276 nm 316° / 313° -
O URSS APT - 0 ft / 0 m 43.43576˚ 39.94578˚ 3 nm 279 nm 317° / 317° Sochi

Altitude Profile

Advertisement - Login to hide

Weather


0- 5 10 15 20 25 30 35+ Temperature / ° C

Clouds and Precipitation
Forecast for 2018-05-22 12:00 UTC. Updated 3 hours ago

Ground ~20,000 ft ~40,000 ft Winds

UDYZ

Details ICAO UDYZ (EVN)
Name ZVARTNOTS
Region Armenia
Timezone Asia/Yerevan (UTC+4.0)
Stats Elevation 2,838 ft / 865 m (AMSL)
Location 40.147271° 44.395880°
Runways 1
Magnetic Variation 6.234° E

METAR

UDYZ 221430Z VRB02KT 9999 SCT040CB 27/09 Q1016 R09/000070 NOSIG

Decode

TAF

TAF UDYZ 220508Z 2206/2306 19006KT 9999 FEW040 TEMPO 2208/2218 VRB16KT -TSRA BKN030CB

Decode

Departure Runways

ID Width Length Bearing (true) Bearing (mag) Surface Threshold Offset Overrun Length
09 184 ft / 56 m 12,601 ft / 3,841 m 89.59° 83.36° Asphalt 0 ft / 0 m 0 ft / 0 m
27 184 ft / 56 m 12,601 ft / 3,841 m 269.62° 263.39° Asphalt 0 ft / 0 m 0 ft / 0 m

URSS

Details ICAO URSS (AER)
Name Sochi
Region Russia
Timezone Europe/Moscow (UTC+3.0)
Stats Elevation 89 ft / 27 m (AMSL)
Location 43.444749° 39.947302°
Runways 2
Magnetic Variation 7.002° E

METAR

URSS 221430Z 29005MPS 9999 FEW030CB 23/18 Q1015 WS R02 R02/090070 R06/090070 NOSIG RMK R06/29005G08MPS MT OBSC QFE760

Decode

TAF

TAF URSS 221057Z 2212/2312 28006G11MPS 9999 SCT030CB SCT100 BECMG 2217/2218 05005MPS SCT015 SCT030CB BKN100 TEMPO 2300/2306 -SHRA BECMG 2306/2307 22006MPS BECMG 2310/2311 28006G11MPS

Decode

Destination Runways

ID Width Length Bearing (true) Bearing (mag) Surface Threshold Offset Overrun Length
02 161 ft / 49 m 7,267 ft / 2,215 m 28.98° 21.98° Concrete 0 ft / 0 m 0 ft / 0 m
06 164 ft / 50 m 9,531 ft / 2,905 m 64.90° 57.90° Concrete 262 ft / 80 m 0 ft / 0 m
20 161 ft / 49 m 7,267 ft / 2,215 m 208.99° 201.99° Concrete 0 ft / 0 m 0 ft / 0 m
24 164 ft / 50 m 9,531 ft / 2,905 m 244.92° 237.92° Concrete 0 ft / 0 m 0 ft / 0 m

Approach Navaids

Runway Type Ident Frequency Range Bearing (true) Bearing (mag) Slope Elevation
02 Localiser IAD 110.50 MHz 18 nm / 33 km 30.95° 23.95° - 89 ft / 27 m (AMSL)
02 Glidescope IAD 110.50 MHz 10 nm / 19 km 28.98° 21.98° 2.80° 89 ft / 27 m (AMSL)
06 Localiser ISO 111.10 MHz 18 nm / 33 km 65.82° 58.82° - 89 ft / 27 m (AMSL)
06 Glidescope ISO 111.10 MHz 10 nm / 19 km 64.91° 57.91° 2.80° 89 ft / 27 m (AMSL)

Popular Alternatives